sensor_id;sensor_type;location;lat;lon;timestamp;pressure;altitude;pressure_sealevel;temperature
72405;BMP280;60395;52.020;113.548;2023-09-08T00:00:11;92744.41;;;32.21
72405;BMP280;60395;52.020;113.548;2023-09-08T00:03:14;92747.53;;;34.09
72405;BMP280;60395;52.020;113.548;2023-09-08T00:06:18;92740.69;;;32.75
72405;BMP280;60395;52.020;113.548;2023-09-08T00:09:21;92745.56;;;32.61
72405;BMP280;60395;52.020;113.548;2023-09-08T00:12:24;92742.88;;;32.48
72405;BMP280;60395;52.020;113.548;2023-09-08T00:15:27;92754.66;;;32.34
72405;BMP280;60395;52.020;113.548;2023-09-08T00:18:30;92748.31;;;32.48
72405;BMP280;60395;52.020;113.548;2023-09-08T00:21:34;92754.41;;;32.42
72405;BMP280;60395;52.020;113.548;2023-09-08T00:24:37;92757.22;;;31.96
72405;BMP280;60395;52.020;113.548;2023-09-08T00:27:40;92756.59;;;31.70
72405;BMP280;60395;52.020;113.548;2023-09-08T00:30:44;92760.91;;;31.28
72405;BMP280;60395;52.020;113.548;2023-09-08T00:33:47;92750.94;;;30.78
72405;BMP280;60395;52.020;113.548;2023-09-08T00:36:50;92756.84;;;29.19
72405;BMP280;60395;52.020;113.548;2023-09-08T00:39:54;92753.47;;;28.45
72405;BMP280;60395;52.020;113.548;2023-09-08T00:42:57;92753.84;;;25.49
72405;BMP280;60395;52.020;113.548;2023-09-08T00:46:00;92753.97;;;23.83
72405;BMP280;60395;52.020;113.548;2023-09-08T00:49:05;92758.16;;;22.51
72405;BMP280;60395;52.020;113.548;2023-09-08T00:52:09;92755.50;;;21.43
72405;BMP280;60395;52.020;113.548;2023-09-08T00:55:12;92761.47;;;20.63
72405;BMP280;60395;52.020;113.548;2023-09-08T00:58:16;92772.69;;;20.17
72405;BMP280;60395;52.020;113.548;2023-09-08T01:01:19;92780.22;;;19.75
72405;BMP280;60395;52.020;113.548;2023-09-08T01:04:23;92777.31;;;19.29
72405;BMP280;60395;52.020;113.548;2023-09-08T01:07:29;92777.72;;;18.93
72405;BMP280;60395;52.020;113.548;2023-09-08T01:10:34;92781.59;;;18.55
72405;BMP280;60395;52.020;113.548;2023-09-08T01:13:37;92776.59;;;18.19
72405;BMP280;60395;52.020;113.548;2023-09-08T01:16:42;92777.03;;;17.95
72405;BMP280;60395;52.020;113.548;2023-09-08T01:19:47;92775.78;;;17.94
72405;BMP280;60395;52.020;113.548;2023-09-08T01:26:18;92785.84;;;17.91
72405;BMP280;60395;52.020;113.548;2023-09-08T01:29:23;92788.88;;;17.83
72405;BMP280;60395;52.020;113.548;2023-09-08T01:32:29;92785.94;;;17.75
72405;BMP280;60395;52.020;113.548;2023-09-08T01:35:33;92786.81;;;17.54
72405;BMP280;60395;52.020;113.548;2023-09-08T01:38:36;92782.66;;;17.43
72405;BMP280;60395;52.020;113.548;2023-09-08T01:41:39;92766.09;;;17.42
72405;BMP280;60395;52.020;113.548;2023-09-08T01:44:43;92779.59;;;17.36
72405;BMP280;60395;52.020;113.548;2023-09-08T01:47:46;92781.25;;;17.29
72405;BMP280;60395;52.020;113.548;2023-09-08T01:50:49;92782.22;;;17.22
72405;BMP280;60395;52.020;113.548;2023-09-08T01:53:52;92777.91;;;17.14
72405;BMP280;60395;52.020;113.548;2023-09-08T01:56:56;92785.88;;;17.14
72405;BMP280;60395;52.020;113.548;2023-09-08T01:59:59;92780.50;;;17.16
72405;BMP280;60395;52.020;113.548;2023-09-08T02:03:03;92774.78;;;17.10
72405;BMP280;60395;52.020;113.548;2023-09-08T02:06:06;92772.13;;;17.10
72405;BMP280;60395;52.020;113.548;2023-09-08T02:09:13;92779.09;;;17.17
72405;BMP280;60395;52.020;113.548;2023-09-08T02:12:17;92783.63;;;17.21
72405;BMP280;60395;52.020;113.548;2023-09-08T02:15:20;92784.16;;;17.23
72405;BMP280;60395;52.020;113.548;2023-09-08T02:18:25;92779.41;;;17.26
72405;BMP280;60395;52.020;113.548;2023-09-08T02:21:28;92783.63;;;17.21
72405;BMP280;60395;52.020;113.548;2023-09-08T02:24:32;92772.22;;;17.22
72405;BMP280;60395;52.020;113.548;2023-09-08T02:27:35;92769.03;;;17.20
72405;BMP280;60395;52.020;113.548;2023-09-08T02:30:39;92769.25;;;17.30
72405;BMP280;60395;52.020;113.548;2023-09-08T02:33:42;92771.41;;;17.42
72405;BMP280;60395;52.020;113.548;2023-09-08T02:36:45;92771.31;;;17.44
72405;BMP280;60395;52.020;113.548;2023-09-08T02:39:51;92769.78;;;17.49
72405;BMP280;60395;52.020;113.548;2023-09-08T02:42:54;92774.25;;;17.53
72405;BMP280;60395;52.020;113.548;2023-09-08T02:45:58;92777.38;;;17.57
72405;BMP280;60395;52.020;113.548;2023-09-08T02:49:02;92783.53;;;17.68
72405;BMP280;60395;52.020;113.548;2023-09-08T02:52:05;92786.31;;;17.81
72405;BMP280;60395;52.020;113.548;2023-09-08T02:55:09;92782.81;;;17.85
72405;BMP280;60395;52.020;113.548;2023-09-08T02:58:12;92784.66;;;17.88
72405;BMP280;60395;52.020;113.548;2023-09-08T03:01:17;92776.53;;;17.92
72405;BMP280;60395;52.020;113.548;2023-09-08T03:04:23;92779.06;;;17.94
72405;BMP280;60395;52.020;113.548;2023-09-08T03:07:27;92774.69;;;18.03
72405;BMP280;60395;52.020;113.548;2023-09-08T03:10:31;92772.31;;;18.12
72405;BMP280;60395;52.020;113.548;2023-09-08T03:13:37;92767.97;;;18.19
72405;BMP280;60395;52.020;113.548;2023-09-08T03:16:41;92773.22;;;18.36
72405;BMP280;60395;52.020;113.548;2023-09-08T03:19:47;92778.00;;;18.60
72405;BMP280;60395;52.020;113.548;2023-09-08T03:22:50;92779.72;;;18.80
72405;BMP280;60395;52.020;113.548;2023-09-08T03:25:53;92768.94;;;18.82
72405;BMP280;60395;52.020;113.548;2023-09-08T03:28:57;92765.13;;;18.79
72405;BMP280;60395;52.020;113.548;2023-09-08T03:32:01;92764.84;;;18.85
72405;BMP280;60395;52.020;113.548;2023-09-08T03:35:05;92753.84;;;18.79
72405;BMP280;60395;52.020;113.548;2023-09-08T03:38:10;92741.97;;;18.63
72405;BMP280;60395;52.020;113.548;2023-09-08T03:41:15;92746.88;;;18.71
72405;BMP280;60395;52.020;113.548;2023-09-08T03:44:18;92752.25;;;18.84
72405;BMP280;60395;52.020;113.548;2023-09-08T03:47:21;92749.38;;;18.88
72405;BMP280;60395;52.020;113.548;2023-09-08T03:50:26;92751.03;;;18.95
72405;BMP280;60395;52.020;113.548;2023-09-08T03:53:29;92739.44;;;19.01
72405;BMP280;60395;52.020;113.548;2023-09-08T03:56:33;92739.19;;;18.92
72405;BMP280;60395;52.020;113.548;2023-09-08T03:59:36;92731.41;;;18.88
72405;BMP280;60395;52.020;113.548;2023-09-08T04:02:39;92734.72;;;18.89
72405;BMP280;60395;52.020;113.548;2023-09-08T04:05:43;92721.94;;;18.91
72405;BMP280;60395;52.020;113.548;2023-09-08T04:08:46;92720.53;;;18.92
72405;BMP280;60395;52.020;113.548;2023-09-08T04:11:49;92714.78;;;18.88
72405;BMP280;60395;52.020;113.548;2023-09-08T04:14:53;92705.59;;;18.72
72405;BMP280;60395;52.020;113.548;2023-09-08T04:17:57;92712.44;;;18.55
72405;BMP280;60395;52.020;113.548;2023-09-08T04:21:01;92706.38;;;18.56
72405;BMP280;60395;52.020;113.548;2023-09-08T04:24:04;92706.00;;;18.64
72405;BMP280;60395;52.020;113.548;2023-09-08T04:27:09;92705.28;;;18.78
72405;BMP280;60395;52.020;113.548;2023-09-08T04:30:16;92713.78;;;18.95
72405;BMP280;60395;52.020;113.548;2023-09-08T04:33:22;92701.25;;;19.32
72405;BMP280;60395;52.020;113.548;2023-09-08T04:36:26;92697.13;;;19.35
72405;BMP280;60395;52.020;113.548;2023-09-08T04:39:29;92694.66;;;19.31
72405;BMP280;60395;52.020;113.548;2023-09-08T04:42:32;92703.59;;;19.25
72405;BMP280;60395;52.020;113.548;2023-09-08T04:45:37;92703.91;;;19.19
72405;BMP280;60395;52.020;113.548;2023-09-08T04:48:41;92681.97;;;19.19
72405;BMP280;60395;52.020;113.548;2023-09-08T04:51:45;92684.31;;;19.25
72405;BMP280;60395;52.020;113.548;2023-09-08T04:54:51;92685.81;;;19.34
72405;BMP280;60395;52.020;113.548;2023-09-08T04:57:55;92684.72;;;19.42
72405;BMP280;60395;52.020;113.548;2023-09-08T05:00:59;92680.63;;;19.57
72405;BMP280;60395;52.020;113.548;2023-09-08T05:04:04;92690.72;;;19.68
72405;BMP280;60395;52.020;113.548;2023-09-08T05:07:07;92680.81;;;19.66
72405;BMP280;60395;52.020;113.548;2023-09-08T05:10:11;92677.72;;;19.61
72405;BMP280;60395;52.020;113.548;2023-09-08T05:13:16;92668.63;;;19.69
72405;BMP280;60395;52.020;113.548;2023-09-08T05:16:33;92672.38;;;19.74
72405;BMP280;60395;52.020;113.548;2023-09-08T05:19:43;92677.69;;;19.87
72405;BMP280;60395;52.020;113.548;2023-09-08T05:22:47;92668.69;;;20.05
72405;BMP280;60395;52.020;113.548;2023-09-08T05:25:51;92679.09;;;20.21
72405;BMP280;60395;52.020;113.548;2023-09-08T05:28:55;92674.34;;;20.35
72405;BMP280;60395;52.020;113.548;2023-09-08T05:31:58;92679.88;;;20.43
72405;BMP280;60395;52.020;113.548;2023-09-08T05:35:01;92672.34;;;20.58
72405;BMP280;60395;52.020;113.548;2023-09-08T05:38:06;92668.59;;;20.76
72405;BMP280;60395;52.020;113.548;2023-09-08T05:41:09;92669.66;;;20.81
72405;BMP280;60395;52.020;113.548;2023-09-08T05:44:13;92672.88;;;20.84
72405;BMP280;60395;52.020;113.548;2023-09-08T05:47:16;92674.47;;;20.79
72405;BMP280;60395;52.020;113.548;2023-09-08T05:50:20;92674.56;;;20.66
72405;BMP280;60395;52.020;113.548;2023-09-08T05:53:24;92672.84;;;20.61
72405;BMP280;60395;52.020;113.548;2023-09-08T05:56:31;92669.66;;;20.58
72405;BMP280;60395;52.020;113.548;2023-09-08T05:59:35;92672.28;;;20.48
72405;BMP280;60395;52.020;113.548;2023-09-08T06:02:38;92664.50;;;20.44
72405;BMP280;60395;52.020;113.548;2023-09-08T06:05:45;92669.13;;;20.33
72405;BMP280;60395;52.020;113.548;2023-09-08T06:08:48;92660.84;;;20.26
72405;BMP280;60395;52.020;113.548;2023-09-08T06:11:52;92663.50;;;20.26
72405;BMP280;60395;52.020;113.548;2023-09-08T06:14:55;92663.91;;;20.30
72405;BMP280;60395;52.020;113.548;2023-09-08T06:17:59;92657.19;;;20.31
72405;BMP280;60395;52.020;113.548;2023-09-08T06:21:02;92661.88;;;20.31
72405;BMP280;60395;52.020;113.548;2023-09-08T06:24:06;92653.63;;;20.35
72405;BMP280;60395;52.020;113.548;2023-09-08T06:27:11;92644.25;;;20.36
72405;BMP280;60395;52.020;113.548;2023-09-08T06:30:15;92640.59;;;20.42
72405;BMP280;60395;52.020;113.548;2023-09-08T06:33:19;92641.44;;;20.51
72405;BMP280;60395;52.020;113.548;2023-09-08T06:36:24;92639.03;;;20.57
72405;BMP280;60395;52.020;113.548;2023-09-08T06:39:28;92640.31;;;20.58
72405;BMP280;60395;52.020;113.548;2023-09-08T06:42:31;92632.84;;;20.61
72405;BMP280;60395;52.020;113.548;2023-09-08T06:45:49;92632.09;;;20.62
72405;BMP280;60395;52.020;113.548;2023-09-08T06:48:53;92633.13;;;20.44
72405;BMP280;60395;52.020;113.548;2023-09-08T06:51:56;92634.88;;;20.37
72405;BMP280;60395;52.020;113.548;2023-09-08T06:54:59;92631.59;;;20.24
72405;BMP280;60395;52.020;113.548;2023-09-08T06:58:03;92615.72;;;20.22
72405;BMP280;60395;52.020;113.548;2023-09-08T07:01:06;92625.00;;;20.23
72405;BMP280;60395;52.020;113.548;2023-09-08T07:04:10;92620.13;;;20.15
72405;BMP280;60395;52.020;113.548;2023-09-08T07:07:14;92621.00;;;20.11
72405;BMP280;60395;52.020;113.548;2023-09-08T07:10:19;92621.91;;;20.18
72405;BMP280;60395;52.020;113.548;2023-09-08T07:13:23;92608.56;;;20.18
72405;BMP280;60395;52.020;113.548;2023-09-08T07:16:26;92623.19;;;20.19
72405;BMP280;60395;52.020;113.548;2023-09-08T07:19:29;92606.56;;;20.19
72405;BMP280;60395;52.020;113.548;2023-09-08T07:22:33;92604.03;;;20.17
72405;BMP280;60395;52.020;113.548;2023-09-08T07:25:37;92608.88;;;20.02
72405;BMP280;60395;52.020;113.548;2023-09-08T07:28:40;92625.25;;;19.83
72405;BMP280;60395;52.020;113.548;2023-09-08T07:31:47;92623.56;;;19.78
72405;BMP280;60395;52.020;113.548;2023-09-08T07:34:51;92632.59;;;19.83
72405;BMP280;60395;52.020;113.548;2023-09-08T07:37:58;92635.91;;;19.83
72405;BMP280;60395;52.020;113.548;2023-09-08T07:41:02;92633.34;;;19.81
72405;BMP280;60395;52.020;113.548;2023-09-08T07:44:07;92630.66;;;19.81
72405;BMP280;60395;52.020;113.548;2023-09-08T07:47:10;92622.91;;;19.77
72405;BMP280;60395;52.020;113.548;2023-09-08T07:50:25;92622.59;;;19.71
72405;BMP280;60395;52.020;113.548;2023-09-08T07:53:28;92620.72;;;19.56
72405;BMP280;60395;52.020;113.548;2023-09-08T07:56:32;92620.31;;;19.39
72405;BMP280;60395;52.020;113.548;2023-09-08T07:59:35;92635.63;;;19.39
72405;BMP280;60395;52.020;113.548;2023-09-08T08:02:45;92633.69;;;19.50
72405;BMP280;60395;52.020;113.548;2023-09-08T08:05:48;92638.72;;;19.56
72405;BMP280;60395;52.020;113.548;2023-09-08T08:08:51;92635.81;;;19.60
72405;BMP280;60395;52.020;113.548;2023-09-08T08:11:55;92638.25;;;19.64
72405;BMP280;60395;52.020;113.548;2023-09-08T08:14:58;92635.19;;;19.59
72405;BMP280;60395;52.020;113.548;2023-09-08T08:18:05;92620.72;;;19.44
72405;BMP280;60395;52.020;113.548;2023-09-08T08:21:09;92597.09;;;19.13
72405;BMP280;60395;52.020;113.548;2023-09-08T08:24:12;92568.63;;;18.71
72405;BMP280;60395;52.020;113.548;2023-09-08T08:27:15;92516.94;;;18.28
72405;BMP280;60395;52.020;113.548;2023-09-08T08:30:18;92519.53;;;18.03
72405;BMP280;60395;52.020;113.548;2023-09-08T08:33:22;92513.78;;;17.99
72405;BMP280;60395;52.020;113.548;2023-09-08T08:36:25;92513.81;;;18.11
72405;BMP280;60395;52.020;113.548;2023-09-08T08:39:28;92519.72;;;18.26
72405;BMP280;60395;52.020;113.548;2023-09-08T08:42:32;92527.09;;;18.51
72405;BMP280;60395;52.020;113.548;2023-09-08T08:45:42;92545.53;;;18.93
72405;BMP280;60395;52.020;113.548;2023-09-08T08:48:46;92549.38;;;19.21
72405;BMP280;60395;52.020;113.548;2023-09-08T08:51:52;92540.63;;;19.23
72405;BMP280;60395;52.020;113.548;2023-09-08T08:54:56;92544.66;;;19.09
72405;BMP280;60395;52.020;113.548;2023-09-08T08:58:05;92540.44;;;19.02
72405;BMP280;60395;52.020;113.548;2023-09-08T09:01:10;92531.81;;;18.88
72405;BMP280;60395;52.020;113.548;2023-09-08T09:04:14;92531.69;;;18.78
72405;BMP280;60395;52.020;113.548;2023-09-08T09:07:18;92534.25;;;18.92
72405;BMP280;60395;52.020;113.548;2023-09-08T09:10:22;92530.97;;;19.05
72405;BMP280;60395;52.020;113.548;2023-09-08T09:13:25;92535.84;;;19.13
72405;BMP280;60395;52.020;113.548;2023-09-08T09:16:29;92536.41;;;19.03
72405;BMP280;60395;52.020;113.548;2023-09-08T09:19:32;92528.63;;;18.86
72405;BMP280;60395;52.020;113.548;2023-09-08T09:22:39;92530.84;;;18.69
72405;BMP280;60395;52.020;113.548;2023-09-08T09:25:42;92528.91;;;18.42
72405;BMP280;60395;52.020;113.548;2023-09-08T09:28:49;92531.09;;;18.25
72405;BMP280;60395;52.020;113.548;2023-09-08T09:32:05;92526.75;;;18.05
72405;BMP280;60395;52.020;113.548;2023-09-08T09:35:09;92531.63;;;17.88
72405;BMP280;60395;52.020;113.548;2023-09-08T09:38:13;92525.59;;;17.75
72405;BMP280;60395;52.020;113.548;2023-09-08T09:41:16;92534.69;;;17.65
72405;BMP280;60395;52.020;113.548;2023-09-08T09:44:19;92530.50;;;17.55
72405;BMP280;60395;52.020;113.548;2023-09-08T09:47:23;92524.38;;;17.44
72405;BMP280;60395;52.020;113.548;2023-09-08T09:50:31;92521.63;;;17.32
72405;BMP280;60395;52.020;113.548;2023-09-08T09:53:35;92518.34;;;17.17
72405;BMP280;60395;52.020;113.548;2023-09-08T09:56:39;92513.88;;;16.98
72405;BMP280;60395;52.020;113.548;2023-09-08T09:59:45;92513.16;;;16.85
72405;BMP280;60395;52.020;113.548;2023-09-08T10:02:51;92520.34;;;16.72
72405;BMP280;60395;52.020;113.548;2023-09-08T10:05:55;92504.41;;;16.58
72405;BMP280;60395;52.020;113.548;2023-09-08T10:09:00;92515.53;;;16.45
72405;BMP280;60395;52.020;113.548;2023-09-08T10:12:05;92520.28;;;16.28
72405;BMP280;60395;52.020;113.548;2023-09-08T10:15:10;92512.09;;;16.18
72405;BMP280;60395;52.020;113.548;2023-09-08T10:18:15;92511.78;;;16.09
72405;BMP280;60395;52.020;113.548;2023-09-08T10:21:21;92513.31;;;16.04
72405;BMP280;60395;52.020;113.548;2023-09-08T10:24:26;92513.97;;;16.05
72405;BMP280;60395;52.020;113.548;2023-09-08T10:27:30;92511.31;;;16.05
72405;BMP280;60395;52.020;113.548;2023-09-08T10:30:35;92502.00;;;16.06
72405;BMP280;60395;52.020;113.548;2023-09-08T10:33:39;92505.31;;;16.06
72405;BMP280;60395;52.020;113.548;2023-09-08T10:36:44;92501.41;;;16.03
72405;BMP280;60395;52.020;113.548;2023-09-08T10:39:47;92496.31;;;15.99
72405;BMP280;60395;52.020;113.548;2023-09-08T10:43:11;92499.28;;;15.91
72405;BMP280;60395;52.020;113.548;2023-09-08T10:46:26;92502.44;;;15.79
72405;BMP280;60395;52.020;113.548;2023-09-08T10:49:35;92493.53;;;15.70
72405;BMP280;60395;52.020;113.548;2023-09-08T10:52:38;92497.16;;;15.62
72405;BMP280;60395;52.020;113.548;2023-09-08T10:55:49;92496.66;;;15.58
72405;BMP280;60395;52.020;113.548;2023-09-08T10:58:59;92492.88;;;15.53
72405;BMP280;60395;52.020;113.548;2023-09-08T11:02:03;92488.47;;;15.47
72405;BMP280;60395;52.020;113.548;2023-09-08T11:05:09;92481.41;;;15.42
72405;BMP280;60395;52.020;113.548;2023-09-08T11:08:13;92481.31;;;15.27
72405;BMP280;60395;52.020;113.548;2023-09-08T11:11:17;92471.28;;;15.13
72405;BMP280;60395;52.020;113.548;2023-09-08T11:14:20;92476.38;;;15.00
72405;BMP280;60395;52.020;113.548;2023-09-08T11:17:27;92467.31;;;14.95
72405;BMP280;60395;52.020;113.548;2023-09-08T11:20:34;92470.84;;;14.90
72405;BMP280;60395;52.020;113.548;2023-09-08T11:23:38;92472.19;;;14.89
72405;BMP280;60395;52.020;113.548;2023-09-08T11:26:43;92463.44;;;14.92
72405;BMP280;60395;52.020;113.548;2023-09-08T11:29:52;92467.88;;;14.98
72405;BMP280;60395;52.020;113.548;2023-09-08T11:32:55;92467.03;;;15.03
72405;BMP280;60395;52.020;113.548;2023-09-08T11:36:01;92470.72;;;15.10
72405;BMP280;60395;52.020;113.548;2023-09-08T11:39:05;92478.41;;;15.16
72405;BMP280;60395;52.020;113.548;2023-09-08T11:42:11;92477.13;;;15.15
72405;BMP280;60395;52.020;113.548;2023-09-08T11:45:16;92473.22;;;15.14
72405;BMP280;60395;52.020;113.548;2023-09-08T11:48:26;92470.00;;;15.12
72405;BMP280;60395;52.020;113.548;2023-09-08T11:51:29;92475.78;;;15.16
72405;BMP280;60395;52.020;113.548;2023-09-08T11:54:34;92495.59;;;15.17
72405;BMP280;60395;52.020;113.548;2023-09-08T11:57:48;92484.34;;;15.17
72405;BMP280;60395;52.020;113.548;2023-09-08T12:00:53;92472.72;;;15.10
72405;BMP280;60395;52.020;113.548;2023-09-08T12:03:56;92483.69;;;15.00
72405;BMP280;60395;52.020;113.548;2023-09-08T12:07:00;92475.69;;;14.83
72405;BMP280;60395;52.020;113.548;2023-09-08T12:10:09;92487.69;;;14.63
72405;BMP280;60395;52.020;113.548;2023-09-08T12:13:13;92484.88;;;14.30
72405;BMP280;60395;52.020;113.548;2023-09-08T12:16:23;92485.19;;;14.01
72405;BMP280;60395;52.020;113.548;2023-09-08T12:19:31;92486.34;;;13.86
72405;BMP280;60395;52.020;113.548;2023-09-08T12:22:34;92487.78;;;13.62
72405;BMP280;60395;52.020;113.548;2023-09-08T12:25:45;92501.50;;;13.46
72405;BMP280;60395;52.020;113.548;2023-09-08T12:28:48;92504.75;;;13.26
72405;BMP280;60395;52.020;113.548;2023-09-08T12:31:52;92519.63;;;13.13
72405;BMP280;60395;52.020;113.548;2023-09-08T12:34:55;92527.06;;;13.06
72405;BMP280;60395;52.020;113.548;2023-09-08T12:38:01;92525.03;;;13.09
72405;BMP280;60395;52.020;113.548;2023-09-08T12:41:05;92526.84;;;13.14
72405;BMP280;60395;52.020;113.548;2023-09-08T12:44:08;92529.41;;;13.16
72405;BMP280;60395;52.020;113.548;2023-09-08T12:47:12;92521.03;;;13.10
72405;BMP280;60395;52.020;113.548;2023-09-08T12:50:15;92536.03;;;12.92
72405;BMP280;60395;52.020;113.548;2023-09-08T12:53:18;92531.16;;;12.78
72405;BMP280;60395;52.020;113.548;2023-09-08T12:56:23;92526.19;;;12.66
72405;BMP280;60395;52.020;113.548;2023-09-08T12:59:27;92523.22;;;12.56
72405;BMP280;60395;52.020;113.548;2023-09-08T13:02:30;92528.63;;;12.50
72405;BMP280;60395;52.020;113.548;2023-09-08T13:05:33;92504.34;;;12.47
72405;BMP280;60395;52.020;113.548;2023-09-08T13:08:37;92497.78;;;12.46
72405;BMP280;60395;52.020;113.548;2023-09-08T13:11:42;92487.25;;;12.46
72405;BMP280;60395;52.020;113.548;2023-09-08T13:14:45;92475.25;;;12.51
72405;BMP280;60395;52.020;113.548;2023-09-08T13:17:48;92455.94;;;12.59
72405;BMP280;60395;52.020;113.548;2023-09-08T13:20:51;92451.06;;;12.69
72405;BMP280;60395;52.020;113.548;2023-09-08T13:23:54;92461.25;;;12.81
72405;BMP280;60395;52.020;113.548;2023-09-08T13:26:58;92466.38;;;12.85
72405;BMP280;60395;52.020;113.548;2023-09-08T13:30:09;92451.78;;;12.88
72405;BMP280;60395;52.020;113.548;2023-09-08T13:33:12;92459.63;;;12.90
72405;BMP280;60395;52.020;113.548;2023-09-08T13:36:16;92460.75;;;12.98
72405;BMP280;60395;52.020;113.548;2023-09-08T13:39:19;92458.66;;;13.02
72405;BMP280;60395;52.020;113.548;2023-09-08T13:42:22;92459.16;;;13.07
72405;BMP280;60395;52.020;113.548;2023-09-08T13:45:26;92467.69;;;13.09
72405;BMP280;60395;52.020;113.548;2023-09-08T13:48:29;92461.16;;;13.06
72405;BMP280;60395;52.020;113.548;2023-09-08T13:51:34;92465.13;;;13.05
72405;BMP280;60395;52.020;113.548;2023-09-08T13:54:40;92458.06;;;13.00
72405;BMP280;60395;52.020;113.548;2023-09-08T13:57:46;92450.34;;;12.93
72405;BMP280;60395;52.020;113.548;2023-09-08T14:00:51;92450.28;;;12.96
72405;BMP280;60395;52.020;113.548;2023-09-08T14:03:55;92430.81;;;12.84
72405;BMP280;60395;52.020;113.548;2023-09-08T14:07:02;92429.66;;;12.79
72405;BMP280;60395;52.020;113.548;2023-09-08T14:10:10;92427.16;;;12.75
72405;BMP280;60395;52.020;113.548;2023-09-08T14:13:17;92425.22;;;12.74
72405;BMP280;60395;52.020;113.548;2023-09-08T14:16:20;92429.84;;;12.73
72405;BMP280;60395;52.020;113.548;2023-09-08T14:19:24;92423.22;;;12.74
72405;BMP280;60395;52.020;113.548;2023-09-08T14:22:27;92429.16;;;12.75
72405;BMP280;60395;52.020;113.548;2023-09-08T14:25:30;92423.34;;;12.70
72405;BMP280;60395;52.020;113.548;2023-09-08T14:28:34;92422.09;;;12.67
72405;BMP280;60395;52.020;113.548;2023-09-08T14:31:37;92409.13;;;12.61
72405;BMP280;60395;52.020;113.548;2023-09-08T14:34:40;92399.88;;;12.62
72405;BMP280;60395;52.020;113.548;2023-09-08T14:37:46;92391.97;;;12.62
72405;BMP280;60395;52.020;113.548;2023-09-08T14:40:58;92391.97;;;12.62
72405;BMP280;60395;52.020;113.548;2023-09-08T14:44:02;92382.00;;;12.65
72405;BMP280;60395;52.020;113.548;2023-09-08T14:47:05;92372.81;;;12.64
72405;BMP280;60395;52.020;113.548;2023-09-08T14:50:08;92382.66;;;12.65
72405;BMP280;60395;52.020;113.548;2023-09-08T14:53:12;92389.19;;;12.66
72405;BMP280;60395;52.020;113.548;2023-09-08T14:56:15;92400.34;;;12.69
72405;BMP280;60395;52.020;113.548;2023-09-08T14:59:18;92402.91;;;12.71
72405;BMP280;60395;52.020;113.548;2023-09-08T15:02:22;92396.81;;;12.76
72405;BMP280;60395;52.020;113.548;2023-09-08T15:05:26;92403.16;;;12.83
72405;BMP280;60395;52.020;113.548;2023-09-08T15:08:30;92418.91;;;12.87
72405;BMP280;60395;52.020;113.548;2023-09-08T15:11:33;92458.31;;;12.91
72405;BMP280;60395;52.020;113.548;2023-09-08T15:14:37;92462.16;;;12.94
72405;BMP280;60395;52.020;113.548;2023-09-08T15:17:40;92464.72;;;12.97
72405;BMP280;60395;52.020;113.548;2023-09-08T15:20:51;92453.69;;;12.92
72405;BMP280;60395;52.020;113.548;2023-09-08T15:23:55;92447.94;;;12.85
72405;BMP280;60395;52.020;113.548;2023-09-08T15:26:58;92446.25;;;12.76
72405;BMP280;60395;52.020;113.548;2023-09-08T15:30:03;92463.97;;;12.77
72405;BMP280;60395;52.020;113.548;2023-09-08T15:33:06;92462.59;;;12.80
72405;BMP280;60395;52.020;113.548;2023-09-08T15:36:11;92459.13;;;12.86
72405;BMP280;60395;52.020;113.548;2023-09-08T15:39:15;92450.53;;;12.87
72405;BMP280;60395;52.020;113.548;2023-09-08T15:42:18;92450.97;;;12.71
72405;BMP280;60395;52.020;113.548;2023-09-08T15:45:21;92453.44;;;12.55
72405;BMP280;60395;52.020;113.548;2023-09-08T15:48:25;92428.72;;;12.44
72405;BMP280;60395;52.020;113.548;2023-09-08T15:51:28;92406.28;;;12.22
72405;BMP280;60395;52.020;113.548;2023-09-08T15:54:31;92378.50;;;12.02
72405;BMP280;60395;52.020;113.548;2023-09-08T15:57:34;92349.19;;;11.92
72405;BMP280;60395;52.020;113.548;2023-09-08T16:00:38;92346.66;;;11.88
72405;BMP280;60395;52.020;113.548;2023-09-08T16:03:41;92379.03;;;11.82
72405;BMP280;60395;52.020;113.548;2023-09-08T16:06:45;92368.06;;;11.73
72405;BMP280;60395;52.020;113.548;2023-09-08T16:09:48;92357.25;;;11.61
72405;BMP280;60395;52.020;113.548;2023-09-08T16:12:51;92361.94;;;11.56
72405;BMP280;60395;52.020;113.548;2023-09-08T16:15:56;92362.00;;;11.54
72405;BMP280;60395;52.020;113.548;2023-09-08T16:18:59;92358.13;;;11.51
72405;BMP280;60395;52.020;113.548;2023-09-08T16:22:03;92362.00;;;11.54
72405;BMP280;60395;52.020;113.548;2023-09-08T16:25:06;92352.72;;;11.57
72405;BMP280;60395;52.020;113.548;2023-09-08T16:28:10;92353.25;;;11.62
72405;BMP280;60395;52.020;113.548;2023-09-08T16:31:13;92356.28;;;11.72
72405;BMP280;60395;52.020;113.548;2023-09-08T16:34:17;92352.22;;;11.77
72405;BMP280;60395;52.020;113.548;2023-09-08T16:37:20;92357.94;;;11.84
72405;BMP280;60395;52.020;113.548;2023-09-08T16:40:23;92360.50;;;11.86
72405;BMP280;60395;52.020;113.548;2023-09-08T16:43:26;92351.34;;;11.85
72405;BMP280;60395;52.020;113.548;2023-09-08T16:46:30;92354.56;;;11.88
72405;BMP280;60395;52.020;113.548;2023-09-08T16:49:33;92355.25;;;11.86
72405;BMP280;60395;52.020;113.548;2023-09-08T16:52:37;92359.97;;;11.81
72405;BMP280;60395;52.020;113.548;2023-09-08T16:55:40;92364.97;;;11.67
72405;BMP280;60395;52.020;113.548;2023-09-08T16:58:43;92356.91;;;11.48
72405;BMP280;60395;52.020;113.548;2023-09-08T17:01:46;92351.91;;;11.38
72405;BMP280;60395;52.020;113.548;2023-09-08T17:04:50;92344.16;;;11.32
72405;BMP280;60395;52.020;113.548;2023-09-08T17:07:53;92340.31;;;11.27
72405;BMP280;60395;52.020;113.548;2023-09-08T17:11:05;92340.44;;;11.23
72405;BMP280;60395;52.020;113.548;2023-09-08T17:14:09;92344.56;;;11.16